sensor_id;sensor_type;location;lat;lon;timestamp;P1;durP1;ratioP1;P2;durP2;ratioP2
29774;SDS011;16676;51.202;6.774;2023-05-10T00:01:40;2.90;;;1.08;;
29774;SDS011;16676;51.202;6.774;2023-05-10T00:05:42;2.20;;;1.00;;
29774;SDS011;16676;51.202;6.774;2023-05-10T00:09:45;2.72;;;1.00;;
29774;SDS011;16676;51.202;6.774;2023-05-10T00:13:47;2.10;;;0.98;;
29774;SDS011;16676;51.202;6.774;2023-05-10T00:17:49;2.33;;;1.00;;
29774;SDS011;16676;51.202;6.774;2023-05-10T00:21:51;2.35;;;0.80;;
29774;SDS011;16676;51.202;6.774;2023-05-10T00:25:54;1.45;;;0.98;;
29774;SDS011;16676;51.202;6.774;2023-05-10T00:29:57;1.52;;;0.88;;
29774;SDS011;16676;51.202;6.774;2023-05-10T00:33:59;1.30;;;1.00;;
29774;SDS011;16676;51.202;6.774;2023-05-10T00:38:00;1.48;;;0.93;;
29774;SDS011;16676;51.202;6.774;2023-05-10T00:42:04;1.63;;;0.63;;
29774;SDS011;16676;51.202;6.774;2023-05-10T00:46:06;1.92;;;0.80;;
29774;SDS011;16676;51.202;6.774;2023-05-10T00:50:09;1.77;;;0.93;;
29774;SDS011;16676;51.202;6.774;2023-05-10T00:54:11;1.52;;;0.90;;
29774;SDS011;16676;51.202;6.774;2023-05-10T00:58:16;1.05;;;0.80;;
29774;SDS011;16676;51.202;6.774;2023-05-10T01:02:18;1.60;;;0.90;;
29774;SDS011;16676;51.202;6.774;2023-05-10T01:06:20;1.65;;;0.80;;
29774;SDS011;16676;51.202;6.774;2023-05-10T01:10:22;1.55;;;0.68;;
29774;SDS011;16676;51.202;6.774;2023-05-10T01:14:25;1.38;;;0.90;;
29774;SDS011;16676;51.202;6.774;2023-05-10T01:18:29;1.50;;;0.80;;
29774;SDS011;16676;51.202;6.774;2023-05-10T01:22:49;3.47;;;1.27;;
29774;SDS011;16676;51.202;6.774;2023-05-10T01:27:25;1.90;;;1.00;;
29774;SDS011;16676;51.202;6.774;2023-05-10T01:36:13;1.40;;;0.80;;
29774;SDS011;16676;51.202;6.774;2023-05-10T01:40:26;1.33;;;0.90;;
29774;SDS011;16676;51.202;6.774;2023-05-10T01:48:40;2.13;;;1.10;;
29774;SDS011;16676;51.202;6.774;2023-05-10T01:52:49;1.48;;;0.80;;
29774;SDS011;16676;51.202;6.774;2023-05-10T01:56:56;1.42;;;0.93;;
29774;SDS011;16676;51.202;6.774;2023-05-10T02:01:04;1.48;;;0.95;;
29774;SDS011;16676;51.202;6.774;2023-05-10T02:05:09;1.13;;;0.75;;
29774;SDS011;16676;51.202;6.774;2023-05-10T02:09:14;1.08;;;0.68;;
29774;SDS011;16676;51.202;6.774;2023-05-10T02:13:18;1.90;;;0.90;;
29774;SDS011;16676;51.202;6.774;2023-05-10T02:17:20;1.73;;;0.73;;
29774;SDS011;16676;51.202;6.774;2023-05-10T02:21:24;1.48;;;0.85;;
29774;SDS011;16676;51.202;6.774;2023-05-10T02:25:28;1.33;;;0.70;;
29774;SDS011;16676;51.202;6.774;2023-05-10T02:29:31;1.38;;;0.70;;
29774;SDS011;16676;51.202;6.774;2023-05-10T02:33:34;1.08;;;0.90;;
29774;SDS011;16676;51.202;6.774;2023-05-10T02:37:38;1.25;;;0.70;;
29774;SDS011;16676;51.202;6.774;2023-05-10T02:41:41;1.25;;;0.80;;
29774;SDS011;16676;51.202;6.774;2023-05-10T02:45:45;1.00;;;0.63;;
29774;SDS011;16676;51.202;6.774;2023-05-10T02:49:49;1.52;;;0.88;;
29774;SDS011;16676;51.202;6.774;2023-05-10T02:53:52;1.00;;;0.70;;
29774;SDS011;16676;51.202;6.774;2023-05-10T02:57:57;1.05;;;0.70;;
29774;SDS011;16676;51.202;6.774;2023-05-10T03:02:01;0.85;;;0.68;;
29774;SDS011;16676;51.202;6.774;2023-05-10T03:06:04;2.00;;;0.70;;
29774;SDS011;16676;51.202;6.774;2023-05-10T03:10:08;0.88;;;0.70;;
29774;SDS011;16676;51.202;6.774;2023-05-10T03:14:13;0.82;;;0.60;;
29774;SDS011;16676;51.202;6.774;2023-05-10T03:18:23;0.93;;;0.70;;
29774;SDS011;16676;51.202;6.774;2023-05-10T03:22:31;0.93;;;0.75;;
29774;SDS011;16676;51.202;6.774;2023-05-10T03:26:37;0.88;;;0.70;;
29774;SDS011;16676;51.202;6.774;2023-05-10T03:30:41;1.00;;;0.70;;
29774;SDS011;16676;51.202;6.774;2023-05-10T03:34:44;1.02;;;0.80;;
29774;SDS011;16676;51.202;6.774;2023-05-10T03:38:46;1.00;;;0.80;;
29774;SDS011;16676;51.202;6.774;2023-05-10T03:42:50;1.10;;;0.70;;
29774;SDS011;16676;51.202;6.774;2023-05-10T03:46:51;0.93;;;0.60;;
29774;SDS011;16676;51.202;6.774;2023-05-10T03:50:53;0.57;;;0.50;;
29774;SDS011;16676;51.202;6.774;2023-05-10T03:54:55;1.00;;;0.57;;
29774;SDS011;16676;51.202;6.774;2023-05-10T03:58:58;5.97;;;0.80;;
29774;SDS011;16676;51.202;6.774;2023-05-10T04:03:00;0.93;;;0.70;;
29774;SDS011;16676;51.202;6.774;2023-05-10T04:07:02;0.98;;;0.60;;
29774;SDS011;16676;51.202;6.774;2023-05-10T04:11:04;1.33;;;0.85;;
29774;SDS011;16676;51.202;6.774;2023-05-10T04:15:09;1.40;;;0.88;;
29774;SDS011;16676;51.202;6.774;2023-05-10T04:19:11;0.95;;;0.57;;
29774;SDS011;16676;51.202;6.774;2023-05-10T04:23:13;1.42;;;0.70;;
29774;SDS011;16676;51.202;6.774;2023-05-10T04:27:16;1.15;;;0.73;;
29774;SDS011;16676;51.202;6.774;2023-05-10T04:31:20;1.27;;;0.77;;
29774;SDS011;16676;51.202;6.774;2023-05-10T04:35:22;0.70;;;0.70;;
29774;SDS011;16676;51.202;6.774;2023-05-10T04:39:24;1.05;;;0.77;;
29774;SDS011;16676;51.202;6.774;2023-05-10T04:43:25;2.58;;;1.08;;
29774;SDS011;16676;51.202;6.774;2023-05-10T04:47:29;5.75;;;1.15;;
29774;SDS011;16676;51.202;6.774;2023-05-10T04:51:31;2.20;;;1.10;;
29774;SDS011;16676;51.202;6.774;2023-05-10T04:55:33;3.08;;;1.13;;
29774;SDS011;16676;51.202;6.774;2023-05-10T04:59:35;3.53;;;1.25;;
29774;SDS011;16676;51.202;6.774;2023-05-10T05:03:38;6.93;;;1.30;;
29774;SDS011;16676;51.202;6.774;2023-05-10T05:07:40;4.82;;;1.10;;
29774;SDS011;16676;51.202;6.774;2023-05-10T05:11:42;7.07;;;1.30;;
29774;SDS011;16676;51.202;6.774;2023-05-10T05:15:44;4.45;;;1.27;;
29774;SDS011;16676;51.202;6.774;2023-05-10T05:19:48;3.20;;;1.30;;
29774;SDS011;16676;51.202;6.774;2023-05-10T05:23:49;5.70;;;1.10;;
29774;SDS011;16676;51.202;6.774;2023-05-10T05:27:51;3.67;;;1.27;;
29774;SDS011;16676;51.202;6.774;2023-05-10T05:31:53;4.30;;;1.40;;
29774;SDS011;16676;51.202;6.774;2023-05-10T05:35:56;4.15;;;1.38;;
29774;SDS011;16676;51.202;6.774;2023-05-10T05:40:01;2.33;;;1.40;;
29774;SDS011;16676;51.202;6.774;2023-05-10T05:44:03;4.53;;;1.90;;
29774;SDS011;16676;51.202;6.774;2023-05-10T05:48:05;2.20;;;1.38;;
29774;SDS011;16676;51.202;6.774;2023-05-10T05:52:08;3.10;;;1.40;;
29774;SDS011;16676;51.202;6.774;2023-05-10T05:56:10;5.20;;;1.33;;
29774;SDS011;16676;51.202;6.774;2023-05-10T06:00:12;4.57;;;1.63;;
29774;SDS011;16676;51.202;6.774;2023-05-10T06:04:15;2.80;;;1.13;;
29774;SDS011;16676;51.202;6.774;2023-05-10T06:08:19;4.43;;;1.50;;
29774;SDS011;16676;51.202;6.774;2023-05-10T06:12:21;3.47;;;1.50;;
29774;SDS011;16676;51.202;6.774;2023-05-10T06:16:23;3.30;;;1.50;;
29774;SDS011;16676;51.202;6.774;2023-05-10T06:20:25;4.38;;;1.42;;
29774;SDS011;16676;51.202;6.774;2023-05-10T06:24:28;2.22;;;1.40;;
29774;SDS011;16676;51.202;6.774;2023-05-10T06:28:30;2.65;;;1.40;;
29774;SDS011;16676;51.202;6.774;2023-05-10T06:32:33;2.20;;;1.45;;
29774;SDS011;16676;51.202;6.774;2023-05-10T06:36:35;3.92;;;1.60;;
29774;SDS011;16676;51.202;6.774;2023-05-10T06:40:41;4.32;;;1.42;;
29774;SDS011;16676;51.202;6.774;2023-05-10T06:44:44;2.80;;;1.30;;
29774;SDS011;16676;51.202;6.774;2023-05-10T06:48:45;3.20;;;1.63;;
29774;SDS011;16676;51.202;6.774;2023-05-10T06:52:47;2.80;;;1.48;;
29774;SDS011;16676;51.202;6.774;2023-05-10T06:56:51;2.85;;;1.70;;
29774;SDS011;16676;51.202;6.774;2023-05-10T07:00:53;4.28;;;1.50;;
29774;SDS011;16676;51.202;6.774;2023-05-10T07:04:55;2.42;;;1.65;;
29774;SDS011;16676;51.202;6.774;2023-05-10T07:08:57;3.45;;;1.90;;
29774;SDS011;16676;51.202;6.774;2023-05-10T07:13:01;2.47;;;1.40;;
29774;SDS011;16676;51.202;6.774;2023-05-10T07:17:03;2.58;;;1.88;;
29774;SDS011;16676;51.202;6.774;2023-05-10T07:21:05;2.28;;;1.55;;
29774;SDS011;16676;51.202;6.774;2023-05-10T07:25:07;3.30;;;1.55;;
29774;SDS011;16676;51.202;6.774;2023-05-10T07:29:10;2.45;;;1.50;;
29774;SDS011;16676;51.202;6.774;2023-05-10T07:33:13;3.08;;;1.83;;
29774;SDS011;16676;51.202;6.774;2023-05-10T07:37:15;4.22;;;1.67;;
29774;SDS011;16676;51.202;6.774;2023-05-10T07:41:17;2.85;;;1.65;;
29774;SDS011;16676;51.202;6.774;2023-05-10T07:45:21;2.58;;;1.50;;
29774;SDS011;16676;51.202;6.774;2023-05-10T07:49:24;3.63;;;1.98;;
29774;SDS011;16676;51.202;6.774;2023-05-10T07:53:26;3.97;;;1.73;;
29774;SDS011;16676;51.202;6.774;2023-05-10T07:57:28;2.65;;;1.65;;
29774;SDS011;16676;51.202;6.774;2023-05-10T08:01:33;2.75;;;1.60;;
29774;SDS011;16676;51.202;6.774;2023-05-10T08:05:35;2.85;;;1.70;;
29774;SDS011;16676;51.202;6.774;2023-05-10T08:09:37;2.80;;;1.70;;
29774;SDS011;16676;51.202;6.774;2023-05-10T08:13:39;2.33;;;1.67;;
29774;SDS011;16676;51.202;6.774;2023-05-10T08:17:42;2.50;;;1.85;;
29774;SDS011;16676;51.202;6.774;2023-05-10T08:21:44;3.35;;;2.33;;
29774;SDS011;16676;51.202;6.774;2023-05-10T08:25:46;3.70;;;2.10;;
29774;SDS011;16676;51.202;6.774;2023-05-10T08:29:48;3.45;;;2.45;;
29774;SDS011;16676;51.202;6.774;2023-05-10T08:33:52;3.28;;;2.50;;
29774;SDS011;16676;51.202;6.774;2023-05-10T08:37:53;3.20;;;2.17;;
29774;SDS011;16676;51.202;6.774;2023-05-10T08:41:55;4.55;;;2.53;;
29774;SDS011;16676;51.202;6.774;2023-05-10T08:46:02;3.87;;;2.80;;
29774;SDS011;16676;51.202;6.774;2023-05-10T08:50:09;3.50;;;2.70;;
29774;SDS011;16676;51.202;6.774;2023-05-10T08:54:12;4.00;;;2.63;;
29774;SDS011;16676;51.202;6.774;2023-05-10T08:58:14;5.07;;;3.17;;
29774;SDS011;16676;51.202;6.774;2023-05-10T09:02:17;5.32;;;3.42;;
29774;SDS011;16676;51.202;6.774;2023-05-10T09:06:21;5.57;;;3.35;;
29774;SDS011;16676;51.202;6.774;2023-05-10T09:10:24;4.03;;;2.95;;
29774;SDS011;16676;51.202;6.774;2023-05-10T09:14:27;7.10;;;3.88;;
29774;SDS011;16676;51.202;6.774;2023-05-10T09:18:30;4.03;;;3.20;;
29774;SDS011;16676;51.202;6.774;2023-05-10T09:22:33;4.82;;;3.55;;
29774;SDS011;16676;51.202;6.774;2023-05-10T09:26:35;5.80;;;3.50;;
29774;SDS011;16676;51.202;6.774;2023-05-10T09:30:47;5.00;;;3.30;;
29774;SDS011;16676;51.202;6.774;2023-05-10T09:34:55;5.53;;;3.40;;
29774;SDS011;16676;51.202;6.774;2023-05-10T09:38:58;4.97;;;3.60;;
29774;SDS011;16676;51.202;6.774;2023-05-10T09:43:01;6.10;;;3.40;;
29774;SDS011;16676;51.202;6.774;2023-05-10T09:47:06;5.00;;;3.67;;
29774;SDS011;16676;51.202;6.774;2023-05-10T09:51:07;4.65;;;3.47;;
29774;SDS011;16676;51.202;6.774;2023-05-10T09:55:11;5.75;;;3.85;;
29774;SDS011;16676;51.202;6.774;2023-05-10T09:59:13;4.57;;;3.55;;
29774;SDS011;16676;51.202;6.774;2023-05-10T10:03:15;8.43;;;4.00;;
29774;SDS011;16676;51.202;6.774;2023-05-10T10:07:22;3.53;;;3.15;;
29774;SDS011;16676;51.202;6.774;2023-05-10T10:11:27;4.47;;;3.60;;
29774;SDS011;16676;51.202;6.774;2023-05-10T10:15:29;7.45;;;3.72;;
29774;SDS011;16676;51.202;6.774;2023-05-10T10:19:32;4.85;;;3.55;;
29774;SDS011;16676;51.202;6.774;2023-05-10T10:23:35;4.68;;;3.60;;
29774;SDS011;16676;51.202;6.774;2023-05-10T10:27:41;4.63;;;3.05;;
29774;SDS011;16676;51.202;6.774;2023-05-10T10:31:50;5.72;;;3.55;;
29774;SDS011;16676;51.202;6.774;2023-05-10T10:35:59;4.97;;;3.60;;
29774;SDS011;16676;51.202;6.774;2023-05-10T10:40:07;4.22;;;3.35;;
29774;SDS011;16676;51.202;6.774;2023-05-10T10:44:37;5.82;;;3.65;;
29774;SDS011;16676;51.202;6.774;2023-05-10T10:48:40;5.32;;;3.72;;
29774;SDS011;16676;51.202;6.774;2023-05-10T10:52:42;5.53;;;3.88;;
29774;SDS011;16676;51.202;6.774;2023-05-10T10:56:45;5.25;;;3.90;;
29774;SDS011;16676;51.202;6.774;2023-05-10T11:01:15;5.63;;;3.85;;
29774;SDS011;16676;51.202;6.774;2023-05-10T11:09:47;5.47;;;3.55;;
29774;SDS011;16676;51.202;6.774;2023-05-10T11:13:50;5.18;;;4.05;;
29774;SDS011;16676;51.202;6.774;2023-05-10T11:17:54;5.60;;;3.97;;
29774;SDS011;16676;51.202;6.774;2023-05-10T11:26:13;5.57;;;4.00;;
29774;SDS011;16676;51.202;6.774;2023-05-10T11:30:16;5.20;;;3.88;;
29774;SDS011;16676;51.202;6.774;2023-05-10T11:34:26;9.80;;;4.03;;
29774;SDS011;16676;51.202;6.774;2023-05-10T11:38:30;5.85;;;4.10;;
29774;SDS011;16676;51.202;6.774;2023-05-10T11:42:34;5.88;;;4.45;;
29774;SDS011;16676;51.202;6.774;2023-05-10T11:46:37;6.95;;;4.63;;
29774;SDS011;16676;51.202;6.774;2023-05-10T11:50:40;5.65;;;4.20;;
29774;SDS011;16676;51.202;6.774;2023-05-10T11:54:45;6.07;;;4.90;;
29774;SDS011;16676;51.202;6.774;2023-05-10T11:58:52;5.15;;;3.88;;
29774;SDS011;16676;51.202;6.774;2023-05-10T12:02:55;6.43;;;4.72;;
29774;SDS011;16676;51.202;6.774;2023-05-10T12:06:59;5.03;;;4.18;;
29774;SDS011;16676;51.202;6.774;2023-05-10T12:11:04;4.95;;;4.00;;
29774;SDS011;16676;51.202;6.774;2023-05-10T12:15:12;5.50;;;4.45;;
29774;SDS011;16676;51.202;6.774;2023-05-10T12:19:18;6.05;;;4.72;;
29774;SDS011;16676;51.202;6.774;2023-05-10T12:23:22;6.07;;;4.82;;
29774;SDS011;16676;51.202;6.774;2023-05-10T12:27:24;5.97;;;4.75;;
29774;SDS011;16676;51.202;6.774;2023-05-10T12:31:26;5.72;;;4.78;;
29774;SDS011;16676;51.202;6.774;2023-05-10T12:35:30;5.32;;;4.32;;
29774;SDS011;16676;51.202;6.774;2023-05-10T12:39:39;6.30;;;4.72;;
29774;SDS011;16676;51.202;6.774;2023-05-10T12:43:42;5.95;;;4.40;;
29774;SDS011;16676;51.202;6.774;2023-05-10T12:47:45;6.63;;;4.78;;
29774;SDS011;16676;51.202;6.774;2023-05-10T12:51:47;6.68;;;4.50;;
29774;SDS011;16676;51.202;6.774;2023-05-10T12:55:50;5.35;;;4.60;;
29774;SDS011;16676;51.202;6.774;2023-05-10T12:59:53;5.15;;;4.28;;
29774;SDS011;16676;51.202;6.774;2023-05-10T13:03:55;5.60;;;4.28;;
29774;SDS011;16676;51.202;6.774;2023-05-10T13:07:57;6.18;;;4.85;;
29774;SDS011;16676;51.202;6.774;2023-05-10T13:12:00;5.18;;;4.43;;
29774;SDS011;16676;51.202;6.774;2023-05-10T13:16:03;4.82;;;4.18;;
29774;SDS011;16676;51.202;6.774;2023-05-10T13:20:06;7.80;;;4.90;;
29774;SDS011;16676;51.202;6.774;2023-05-10T13:24:08;5.35;;;4.35;;
29774;SDS011;16676;51.202;6.774;2023-05-10T13:28:12;5.72;;;4.85;;
29774;SDS011;16676;51.202;6.774;2023-05-10T13:32:13;5.70;;;4.55;;
29774;SDS011;16676;51.202;6.774;2023-05-10T13:36:15;5.20;;;4.38;;
29774;SDS011;16676;51.202;6.774;2023-05-10T13:40:17;5.45;;;4.60;;
29774;SDS011;16676;51.202;6.774;2023-05-10T13:44:20;5.22;;;4.63;;
29774;SDS011;16676;51.202;6.774;2023-05-10T13:48:22;6.97;;;4.00;;
29774;SDS011;16676;51.202;6.774;2023-05-10T13:52:24;5.30;;;4.50;;
29774;SDS011;16676;51.202;6.774;2023-05-10T13:56:27;5.38;;;4.13;;
29774;SDS011;16676;51.202;6.774;2023-05-10T14:00:30;6.45;;;4.15;;
29774;SDS011;16676;51.202;6.774;2023-05-10T14:04:32;4.95;;;4.20;;
29774;SDS011;16676;51.202;6.774;2023-05-10T14:08:35;4.28;;;3.88;;
29774;SDS011;16676;51.202;6.774;2023-05-10T14:12:37;5.20;;;4.70;;
29774;SDS011;16676;51.202;6.774;2023-05-10T14:16:42;5.00;;;4.50;;
29774;SDS011;16676;51.202;6.774;2023-05-10T14:20:45;4.93;;;4.30;;
29774;SDS011;16676;51.202;6.774;2023-05-10T14:24:47;5.35;;;4.43;;
29774;SDS011;16676;51.202;6.774;2023-05-10T14:28:48;7.32;;;4.75;;
29774;SDS011;16676;51.202;6.774;2023-05-10T14:32:52;4.72;;;4.32;;
29774;SDS011;16676;51.202;6.774;2023-05-10T14:36:54;5.05;;;4.55;;
29774;SDS011;16676;51.202;6.774;2023-05-10T14:40:56;18.65;;;4.88;;
29774;SDS011;16676;51.202;6.774;2023-05-10T14:44:58;5.22;;;4.72;;
29774;SDS011;16676;51.202;6.774;2023-05-10T14:49:01;4.55;;;3.92;;
29774;SDS011;16676;51.202;6.774;2023-05-10T14:53:03;14.35;;;4.57;;
29774;SDS011;16676;51.202;6.774;2023-05-10T14:57:05;6.10;;;4.10;;
29774;SDS011;16676;51.202;6.774;2023-05-10T15:01:07;24.17;;;4.43;;
29774;SDS011;16676;51.202;6.774;2023-05-10T15:05:10;8.43;;;3.92;;
29774;SDS011;16676;51.202;6.774;2023-05-10T15:09:12;5.00;;;4.30;;
29774;SDS011;16676;51.202;6.774;2023-05-10T15:13:15;4.60;;;4.10;;
29774;SDS011;16676;51.202;6.774;2023-05-10T15:17:17;39.15;;;4.93;;
29774;SDS011;16676;51.202;6.774;2023-05-10T15:21:20;4.47;;;3.75;;
29774;SDS011;16676;51.202;6.774;2023-05-10T15:25:22;4.13;;;3.72;;
29774;SDS011;16676;51.202;6.774;2023-05-10T15:29:25;5.00;;;4.38;;
29774;SDS011;16676;51.202;6.774;2023-05-10T15:33:27;4.25;;;3.80;;
29774;SDS011;16676;51.202;6.774;2023-05-10T15:37:30;4.30;;;3.88;;
29774;SDS011;16676;51.202;6.774;2023-05-10T15:41:32;5.90;;;4.53;;
29774;SDS011;16676;51.202;6.774;2023-05-10T15:45:34;5.63;;;4.25;;
29774;SDS011;16676;51.202;6.774;2023-05-10T15:49:35;8.38;;;4.95;;
29774;SDS011;16676;51.202;6.774;2023-05-10T15:53:39;6.65;;;4.53;;
29774;SDS011;16676;51.202;6.774;2023-05-10T15:57:41;6.43;;;4.38;;
29774;SDS011;16676;51.202;6.774;2023-05-10T16:01:45;6.50;;;4.55;;
29774;SDS011;16676;51.202;6.774;2023-05-10T16:05:47;8.38;;;4.55;;
29774;SDS011;16676;51.202;6.774;2023-05-10T16:09:50;6.15;;;4.88;;
29774;SDS011;16676;51.202;6.774;2023-05-10T16:13:53;8.10;;;4.82;;
29774;SDS011;16676;51.202;6.774;2023-05-10T16:17:55;7.30;;;5.18;;
29774;SDS011;16676;51.202;6.774;2023-05-10T16:21:57;11.00;;;5.95;;
29774;SDS011;16676;51.202;6.774;2023-05-10T16:26:00;6.03;;;4.85;;
29774;SDS011;16676;51.202;6.774;2023-05-10T16:30:02;7.90;;;5.47;;
29774;SDS011;16676;51.202;6.774;2023-05-10T16:34:05;8.18;;;5.60;;
29774;SDS011;16676;51.202;6.774;2023-05-10T16:38:07;5.55;;;4.05;;
29774;SDS011;16676;51.202;6.774;2023-05-10T16:42:10;7.07;;;3.92;;
29774;SDS011;16676;51.202;6.774;2023-05-10T16:46:12;10.48;;;3.60;;
29774;SDS011;16676;51.202;6.774;2023-05-10T16:50:14;6.68;;;3.58;;
29774;SDS011;16676;51.202;6.774;2023-05-10T16:54:16;5.45;;;3.05;;
29774;SDS011;16676;51.202;6.774;2023-05-10T16:58:19;8.15;;;3.25;;
29774;SDS011;16676;51.202;6.774;2023-05-10T17:02:21;7.47;;;3.65;;
29774;SDS011;16676;51.202;6.774;2023-05-10T17:06:23;3.17;;;2.55;;
29774;SDS011;16676;51.202;6.774;2023-05-10T17:10:25;4.93;;;2.53;;
29774;SDS011;16676;51.202;6.774;2023-05-10T17:14:28;2.75;;;2.20;;
29774;SDS011;16676;51.202;6.774;2023-05-10T17:18:30;4.88;;;2.60;;
29774;SDS011;16676;51.202;6.774;2023-05-10T17:22:32;3.33;;;1.88;;
29774;SDS011;16676;51.202;6.774;2023-05-10T17:26:34;4.25;;;2.63;;
29774;SDS011;16676;51.202;6.774;2023-05-10T17:30:37;2.22;;;1.92;;
29774;SDS011;16676;51.202;6.774;2023-05-10T17:34:39;4.05;;;2.08;;
29774;SDS011;16676;51.202;6.774;2023-05-10T17:38:41;4.22;;;2.20;;
29774;SDS011;16676;51.202;6.774;2023-05-10T17:42:43;4.07;;;2.40;;
29774;SDS011;16676;51.202;6.774;2023-05-10T17:46:47;4.05;;;2.08;;
29774;SDS011;16676;51.202;6.774;2023-05-10T17:50:49;3.08;;;1.95;;
29774;SDS011;16676;51.202;6.774;2023-05-10T17:54:50;6.75;;;2.20;;
29774;SDS011;16676;51.202;6.774;2023-05-10T17:58:52;11.13;;;2.38;;
29774;SDS011;16676;51.202;6.774;2023-05-10T18:02:56;3.70;;;2.50;;
29774;SDS011;16676;51.202;6.774;2023-05-10T18:06:57;7.20;;;2.28;;
29774;SDS011;16676;51.202;6.774;2023-05-10T18:11:01;5.18;;;2.65;;
29774;SDS011;16676;51.202;6.774;2023-05-10T18:15:03;4.43;;;2.60;;
29774;SDS011;16676;51.202;6.774;2023-05-10T18:19:07;4.80;;;2.13;;
29774;SDS011;16676;51.202;6.774;2023-05-10T18:23:09;10.18;;;2.30;;
29774;SDS011;16676;51.202;6.774;2023-05-10T18:27:11;5.32;;;2.40;;
29774;SDS011;16676;51.202;6.774;2023-05-10T18:31:13;4.50;;;2.60;;
29774;SDS011;16676;51.202;6.774;2023-05-10T18:35:16;3.80;;;2.20;;
29774;SDS011;16676;51.202;6.774;2023-05-10T18:39:18;5.75;;;2.42;;
29774;SDS011;16676;51.202;6.774;2023-05-10T18:43:20;4.90;;;2.30;;
29774;SDS011;16676;51.202;6.774;2023-05-10T18:47:22;3.75;;;2.25;;
29774;SDS011;16676;51.202;6.774;2023-05-10T18:51:26;6.15;;;2.30;;
29774;SDS011;16676;51.202;6.774;2023-05-10T18:55:30;2.83;;;2.20;;
29774;SDS011;16676;51.202;6.774;2023-05-10T18:59:32;3.92;;;2.17;;
29774;SDS011;16676;51.202;6.774;2023-05-10T19:03:34;4.47;;;2.20;;
29774;SDS011;16676;51.202;6.774;2023-05-10T19:07:37;4.13;;;2.20;;
29774;SDS011;16676;51.202;6.774;2023-05-10T19:11:42;5.10;;;2.42;;
29774;SDS011;16676;51.202;6.774;2023-05-10T19:15:44;6.47;;;2.20;;
29774;SDS011;16676;51.202;6.774;2023-05-10T19:19:46;4.32;;;2.60;;
29774;SDS011;16676;51.202;6.774;2023-05-10T19:23:49;3.13;;;2.30;;
29774;SDS011;16676;51.202;6.774;2023-05-10T19:27:51;4.93;;;2.50;;
29774;SDS011;16676;51.202;6.774;2023-05-10T19:31:53;4.55;;;2.22;;
29774;SDS011;16676;51.202;6.774;2023-05-10T19:35:55;4.45;;;2.40;;
29774;SDS011;16676;51.202;6.774;2023-05-10T19:39:58;30.98;;;2.42;;
29774;SDS011;16676;51.202;6.774;2023-05-10T19:44:00;3.28;;;1.98;;
29774;SDS011;16676;51.202;6.774;2023-05-10T19:48:02;4.28;;;2.00;;
29774;SDS011;16676;51.202;6.774;2023-05-10T19:52:04;5.63;;;2.10;;
29774;SDS011;16676;51.202;6.774;2023-05-10T19:56:08;5.97;;;1.88;;
29774;SDS011;16676;51.202;6.774;2023-05-10T20:00:11;4.50;;;2.55;;
29774;SDS011;16676;51.202;6.774;2023-05-10T20:04:13;3.85;;;2.25;;
29774;SDS011;16676;51.202;6.774;2023-05-10T20:08:15;6.22;;;2.10;;
29774;SDS011;16676;51.202;6.774;2023-05-10T20:12:19;3.67;;;2.00;;
29774;SDS011;16676;51.202;6.774;2023-05-10T20:16:20;4.07;;;2.17;;
29774;SDS011;16676;51.202;6.774;2023-05-10T20:20:23;4.07;;;2.08;;
29774;SDS011;16676;51.202;6.774;2023-05-10T20:24:24;3.88;;;1.88;;
29774;SDS011;16676;51.202;6.774;2023-05-10T20:28:28;3.75;;;2.00;;
29774;SDS011;16676;51.202;6.774;2023-05-10T20:32:30;4.68;;;2.00;;
29774;SDS011;16676;51.202;6.774;2023-05-10T20:36:32;2.75;;;2.00;;
29774;SDS011;16676;51.202;6.774;2023-05-10T20:40:34;3.90;;;1.90;;
29774;SDS011;16676;51.202;6.774;2023-05-10T20:44:37;3.90;;;1.80;;
29774;SDS011;16676;51.202;6.774;2023-05-10T20:48:39;3.95;;;2.22;;
29774;SDS011;16676;51.202;6.774;2023-05-10T20:52:41;4.32;;;2.17;;
29774;SDS011;16676;51.202;6.774;2023-05-10T20:56:43;4.32;;;2.20;;
29774;SDS011;16676;51.202;6.774;2023-05-10T21:00:46;4.00;;;1.90;;
29774;SDS011;16676;51.202;6.774;2023-05-10T21:04:48;5.03;;;2.72;;
29774;SDS011;16676;51.202;6.774;2023-05-10T21:08:50;2.85;;;1.95;;
29774;SDS011;16676;51.202;6.774;2023-05-10T21:12:51;3.38;;;2.38;;
29774;SDS011;16676;51.202;6.774;2023-05-10T21:16:55;4.28;;;2.28;;
29774;SDS011;16676;51.202;6.774;2023-05-10T21:20:57;3.00;;;2.33;;
29774;SDS011;16676;51.202;6.774;2023-05-10T21:24:59;4.00;;;2.63;;
29774;SDS011;16676;51.202;6.774;2023-05-10T21:29:01;3.78;;;2.30;;
29774;SDS011;16676;51.202;6.774;2023-05-10T21:33:05;3.33;;;2.05;;
29774;SDS011;16676;51.202;6.774;2023-05-10T21:37:07;4.53;;;2.40;;
29774;SDS011;16676;51.202;6.774;2023-05-10T21:41:09;4.03;;;2.10;;
29774;SDS011;16676;51.202;6.774;2023-05-10T21:45:11;3.92;;;2.40;;
29774;SDS011;16676;51.202;6.774;2023-05-10T21:49:14;4.53;;;2.38;;
29774;SDS011;16676;51.202;6.774;2023-05-10T21:53:16;6.22;;;2.88;;
29774;SDS011;16676;51.202;6.774;2023-05-10T21:57:18;3.65;;;2.40;;
29774;SDS011;16676;51.202;6.774;2023-05-10T22:01:20;4.47;;;2.78;;
29774;SDS011;16676;51.202;6.774;2023-05-10T22:05:23;3.22;;;2.40;;
29774;SDS011;16676;51.202;6.774;2023-05-10T22:09:25;4.57;;;2.42;;
29774;SDS011;16676;51.202;6.774;2023-05-10T22:13:27;3.25;;;2.28;;
29774;SDS011;16676;51.202;6.774;2023-05-10T22:17:29;3.25;;;2.30;;
29774;SDS011;16676;51.202;6.774;2023-05-10T22:21:32;4.22;;;2.65;;
29774;SDS011;16676;51.202;6.774;2023-05-10T22:25:34;3.03;;;2.33;;
29774;SDS011;16676;51.202;6.774;2023-05-10T22:29:36;4.47;;;2.50;;
29774;SDS011;16676;51.202;6.774;2023-05-10T22:33:38;4.20;;;2.78;;
29774;SDS011;16676;51.202;6.774;2023-05-10T22:37:41;7.25;;;3.03;;
29774;SDS011;16676;51.202;6.774;2023-05-10T22:41:43;3.55;;;2.38;;
29774;SDS011;16676;51.202;6.774;2023-05-10T22:45:45;4.88;;;2.65;;
29774;SDS011;16676;51.202;6.774;2023-05-10T22:49:47;4.45;;;2.65;;
29774;SDS011;16676;51.202;6.774;2023-05-10T22:53:51;3.75;;;2.63;;
29774;SDS011;16676;51.202;6.774;2023-05-10T22:57:52;5.00;;;3.20;;
29774;SDS011;16676;51.202;6.774;2023-05-10T23:01:54;5.55;;;3.50;;
29774;SDS011;16676;51.202;6.774;2023-05-10T23:05:56;4.97;;;3.28;;
29774;SDS011;16676;51.202;6.774;2023-05-10T23:10:00;5.95;;;3.17;;
29774;SDS011;16676;51.202;6.774;2023-05-10T23:14:01;4.13;;;3.28;;
29774;SDS011;16676;51.202;6.774;2023-05-10T23:18:03;6.55;;;3.50;;
29774;SDS011;16676;51.202;6.774;2023-05-10T23:22:06;4.07;;;2.97;;
29774;SDS011;16676;51.202;6.774;2023-05-10T23:26:10;4.93;;;3.10;;
29774;SDS011;16676;51.202;6.774;2023-05-10T23:30:12;4.20;;;2.90;;
29774;SDS011;16676;51.202;6.774;2023-05-10T23:34:14;3.97;;;2.85;;
29774;SDS011;16676;51.202;6.774;2023-05-10T23:38:16;5.15;;;3.08;;
29774;SDS011;16676;51.202;6.774;2023-05-10T23:42:20;5.28;;;3.25;;
29774;SDS011;16676;51.202;6.774;2023-05-10T23:46:21;5.38;;;3.13;;
29774;SDS011;16676;51.202;6.774;2023-05-10T23:50:23;4.55;;;3.15;;
29774;SDS011;16676;51.202;6.774;2023-05-10T23:54:25;5.03;;;3.33;;
29774;SDS011;16676;51.202;6.774;2023-05-10T23:58:29;4.10;;;2.92;;
